sensor_id;sensor_type;location;lat;lon;timestamp;temperature;humidity
5556;DHT22;2801;50.972;7.856;2023-09-19T00:01:00;14.10;99.90
5556;DHT22;2801;50.972;7.856;2023-09-19T00:03:27;13.90;99.90
5556;DHT22;2801;50.972;7.856;2023-09-19T00:05:55;14.00;99.90
5556;DHT22;2801;50.972;7.856;2023-09-19T00:08:24;14.00;99.90
5556;DHT22;2801;50.972;7.856;2023-09-19T00:10:51;14.00;99.90
5556;DHT22;2801;50.972;7.856;2023-09-19T00:13:20;13.80;99.90
5556;DHT22;2801;50.972;7.856;2023-09-19T00:15:48;14.00;99.90
5556;DHT22;2801;50.972;7.856;2023-09-19T00:18:18;13.90;99.90
5556;DHT22;2801;50.972;7.856;2023-09-19T00:20:48;13.90;99.90
5556;DHT22;2801;50.972;7.856;2023-09-19T00:23:18;14.00;99.90
5556;DHT22;2801;50.972;7.856;2023-09-19T00:25:46;13.90;99.90
5556;DHT22;2801;50.972;7.856;2023-09-19T00:28:14;13.80;99.90
5556;DHT22;2801;50.972;7.856;2023-09-19T00:30:43;13.80;99.90
5556;DHT22;2801;50.972;7.856;2023-09-19T00:33:11;13.80;99.90
5556;DHT22;2801;50.972;7.856;2023-09-19T00:35:54;13.70;99.90
5556;DHT22;2801;50.972;7.856;2023-09-19T00:38:22;13.60;99.90
5556;DHT22;2801;50.972;7.856;2023-09-19T00:40:54;13.50;99.90
5556;DHT22;2801;50.972;7.856;2023-09-19T00:43:26;13.50;99.90
5556;DHT22;2801;50.972;7.856;2023-09-19T00:45:56;13.40;99.90
5556;DHT22;2801;50.972;7.856;2023-09-19T00:48:25;13.30;99.90
5556;DHT22;2801;50.972;7.856;2023-09-19T00:50:54;13.30;99.90
5556;DHT22;2801;50.972;7.856;2023-09-19T00:53:24;13.20;99.90
5556;DHT22;2801;50.972;7.856;2023-09-19T00:55:52;13.00;99.90
5556;DHT22;2801;50.972;7.856;2023-09-19T00:58:19;13.00;99.90
5556;DHT22;2801;50.972;7.856;2023-09-19T01:00:48;13.00;99.90
5556;DHT22;2801;50.972;7.856;2023-09-19T01:03:17;12.90;99.90
5556;DHT22;2801;50.972;7.856;2023-09-19T01:05:45;12.90;99.90
5556;DHT22;2801;50.972;7.856;2023-09-19T01:08:12;13.00;99.90
5556;DHT22;2801;50.972;7.856;2023-09-19T01:11:06;12.80;99.90
5556;DHT22;2801;50.972;7.856;2023-09-19T01:20:32;12.40;99.90
5556;DHT22;2801;50.972;7.856;2023-09-19T01:23:20;12.40;99.90
5556;DHT22;2801;50.972;7.856;2023-09-19T01:32:03;12.20;99.90
5556;DHT22;2801;50.972;7.856;2023-09-19T01:34:48;12.10;99.90
5556;DHT22;2801;50.972;7.856;2023-09-19T01:37:19;12.00;99.90
5556;DHT22;2801;50.972;7.856;2023-09-19T01:39:50;12.10;99.90
5556;DHT22;2801;50.972;7.856;2023-09-19T01:42:44;12.10;99.90
5556;DHT22;2801;50.972;7.856;2023-09-19T01:48:41;12.10;99.90
5556;DHT22;2801;50.972;7.856;2023-09-19T01:51:22;12.10;99.90
5556;DHT22;2801;50.972;7.856;2023-09-19T01:54:08;12.20;99.90
5556;DHT22;2801;50.972;7.856;2023-09-19T01:59:54;12.40;99.90
5556;DHT22;2801;50.972;7.856;2023-09-19T02:02:28;12.60;99.90
5556;DHT22;2801;50.972;7.856;2023-09-19T02:04:56;12.60;99.90
5556;DHT22;2801;50.972;7.856;2023-09-19T02:07:23;12.70;99.90
5556;DHT22;2801;50.972;7.856;2023-09-19T02:09:50;12.80;99.90
5556;DHT22;2801;50.972;7.856;2023-09-19T02:12:17;12.90;99.90
5556;DHT22;2801;50.972;7.856;2023-09-19T02:14:44;12.90;99.90
5556;DHT22;2801;50.972;7.856;2023-09-19T02:17:11;13.20;99.90
5556;DHT22;2801;50.972;7.856;2023-09-19T02:19:38;12.90;99.90
5556;DHT22;2801;50.972;7.856;2023-09-19T02:22:07;13.00;99.90
5556;DHT22;2801;50.972;7.856;2023-09-19T02:24:37;13.00;99.90
5556;DHT22;2801;50.972;7.856;2023-09-19T02:27:07;13.10;99.90
5556;DHT22;2801;50.972;7.856;2023-09-19T02:29:34;13.20;99.90
5556;DHT22;2801;50.972;7.856;2023-09-19T02:32:01;13.20;99.90
5556;DHT22;2801;50.972;7.856;2023-09-19T02:34:30;13.10;99.90
5556;DHT22;2801;50.972;7.856;2023-09-19T02:36:57;13.10;99.90
5556;DHT22;2801;50.972;7.856;2023-09-19T02:39:24;13.40;99.90
5556;DHT22;2801;50.972;7.856;2023-09-19T02:41:51;13.20;99.90
5556;DHT22;2801;50.972;7.856;2023-09-19T02:44:22;13.20;99.90
5556;DHT22;2801;50.972;7.856;2023-09-19T02:46:50;13.10;99.90
5556;DHT22;2801;50.972;7.856;2023-09-19T02:49:18;13.20;99.90
5556;DHT22;2801;50.972;7.856;2023-09-19T02:51:45;13.10;99.90
5556;DHT22;2801;50.972;7.856;2023-09-19T02:54:12;13.20;99.90
5556;DHT22;2801;50.972;7.856;2023-09-19T02:56:40;13.40;99.90
5556;DHT22;2801;50.972;7.856;2023-09-19T02:59:07;13.10;99.90
5556;DHT22;2801;50.972;7.856;2023-09-19T03:01:37;13.10;99.90
5556;DHT22;2801;50.972;7.856;2023-09-19T03:04:05;13.00;99.90
5556;DHT22;2801;50.972;7.856;2023-09-19T03:06:35;13.10;99.90
5556;DHT22;2801;50.972;7.856;2023-09-19T03:09:02;13.10;99.90
5556;DHT22;2801;50.972;7.856;2023-09-19T03:11:32;13.10;99.90
5556;DHT22;2801;50.972;7.856;2023-09-19T03:13:59;13.10;99.90
5556;DHT22;2801;50.972;7.856;2023-09-19T03:16:26;13.20;99.90
5556;DHT22;2801;50.972;7.856;2023-09-19T03:18:53;13.10;99.90
5556;DHT22;2801;50.972;7.856;2023-09-19T03:21:20;13.00;99.90
5556;DHT22;2801;50.972;7.856;2023-09-19T03:23:48;13.00;99.90
5556;DHT22;2801;50.972;7.856;2023-09-19T03:26:15;13.00;99.90
5556;DHT22;2801;50.972;7.856;2023-09-19T03:28:43;12.90;99.90
5556;DHT22;2801;50.972;7.856;2023-09-19T03:31:12;12.90;99.90
5556;DHT22;2801;50.972;7.856;2023-09-19T03:33:39;12.80;99.90
5556;DHT22;2801;50.972;7.856;2023-09-19T03:36:07;12.80;99.90
5556;DHT22;2801;50.972;7.856;2023-09-19T03:38:34;12.70;99.90
5556;DHT22;2801;50.972;7.856;2023-09-19T03:41:02;12.70;99.90
5556;DHT22;2801;50.972;7.856;2023-09-19T03:43:29;12.60;99.90
5556;DHT22;2801;50.972;7.856;2023-09-19T03:46:01;12.60;99.90
5556;DHT22;2801;50.972;7.856;2023-09-19T03:48:32;12.60;99.90
5556;DHT22;2801;50.972;7.856;2023-09-19T03:51:00;12.50;99.90
5556;DHT22;2801;50.972;7.856;2023-09-19T03:53:27;12.60;99.90
5556;DHT22;2801;50.972;7.856;2023-09-19T03:55:54;12.50;99.90
5556;DHT22;2801;50.972;7.856;2023-09-19T03:58:21;12.60;99.90
5556;DHT22;2801;50.972;7.856;2023-09-19T04:00:48;12.50;99.90
5556;DHT22;2801;50.972;7.856;2023-09-19T04:03:17;12.50;99.90
5556;DHT22;2801;50.972;7.856;2023-09-19T04:05:47;12.40;99.90
5556;DHT22;2801;50.972;7.856;2023-09-19T04:08:14;12.40;99.90
5556;DHT22;2801;50.972;7.856;2023-09-19T04:10:44;12.60;99.90
5556;DHT22;2801;50.972;7.856;2023-09-19T04:13:12;12.40;99.90
5556;DHT22;2801;50.972;7.856;2023-09-19T04:15:39;12.30;99.90
5556;DHT22;2801;50.972;7.856;2023-09-19T04:18:07;12.30;99.90
5556;DHT22;2801;50.972;7.856;2023-09-19T04:20:34;12.40;99.90
5556;DHT22;2801;50.972;7.856;2023-09-19T04:23:01;12.40;99.90
5556;DHT22;2801;50.972;7.856;2023-09-19T04:25:29;12.30;99.90
5556;DHT22;2801;50.972;7.856;2023-09-19T04:27:56;12.30;99.90
5556;DHT22;2801;50.972;7.856;2023-09-19T04:30:23;12.30;99.90
5556;DHT22;2801;50.972;7.856;2023-09-19T04:32:49;12.20;99.90
5556;DHT22;2801;50.972;7.856;2023-09-19T04:35:18;12.20;99.90
5556;DHT22;2801;50.972;7.856;2023-09-19T04:37:45;12.20;99.90
5556;DHT22;2801;50.972;7.856;2023-09-19T04:40:12;12.20;99.90
5556;DHT22;2801;50.972;7.856;2023-09-19T04:42:40;12.20;99.90
5556;DHT22;2801;50.972;7.856;2023-09-19T04:45:08;12.20;99.90
5556;DHT22;2801;50.972;7.856;2023-09-19T04:47:37;12.10;99.90
5556;DHT22;2801;50.972;7.856;2023-09-19T04:50:09;12.10;99.90
5556;DHT22;2801;50.972;7.856;2023-09-19T04:52:44;12.10;99.90
5556;DHT22;2801;50.972;7.856;2023-09-19T04:55:13;12.10;99.90
5556;DHT22;2801;50.972;7.856;2023-09-19T04:57:48;12.00;99.90
5556;DHT22;2801;50.972;7.856;2023-09-19T05:00:18;11.90;99.90
5556;DHT22;2801;50.972;7.856;2023-09-19T05:02:56;12.00;99.90
5556;DHT22;2801;50.972;7.856;2023-09-19T05:05:24;12.00;99.90
5556;DHT22;2801;50.972;7.856;2023-09-19T05:07:53;11.90;99.90
5556;DHT22;2801;50.972;7.856;2023-09-19T05:10:23;11.90;99.90
5556;DHT22;2801;50.972;7.856;2023-09-19T05:12:53;11.90;99.90
5556;DHT22;2801;50.972;7.856;2023-09-19T05:15:20;11.80;99.90
5556;DHT22;2801;50.972;7.856;2023-09-19T05:17:49;11.80;99.90
5556;DHT22;2801;50.972;7.856;2023-09-19T05:20:22;11.80;99.90
5556;DHT22;2801;50.972;7.856;2023-09-19T05:23:04;11.80;99.90
5556;DHT22;2801;50.972;7.856;2023-09-19T05:25:40;11.80;99.90
5556;DHT22;2801;50.972;7.856;2023-09-19T05:28:09;11.80;99.90
5556;DHT22;2801;50.972;7.856;2023-09-19T05:30:38;11.80;99.90
5556;DHT22;2801;50.972;7.856;2023-09-19T05:33:06;11.80;99.90
5556;DHT22;2801;50.972;7.856;2023-09-19T05:35:35;11.70;99.90
5556;DHT22;2801;50.972;7.856;2023-09-19T05:38:07;11.70;99.90
5556;DHT22;2801;50.972;7.856;2023-09-19T05:40:40;11.70;99.90
5556;DHT22;2801;50.972;7.856;2023-09-19T05:43:12;11.70;99.90
5556;DHT22;2801;50.972;7.856;2023-09-19T05:45:42;11.60;99.90
5556;DHT22;2801;50.972;7.856;2023-09-19T05:48:11;11.60;99.90
5556;DHT22;2801;50.972;7.856;2023-09-19T05:50:40;11.60;99.90
5556;DHT22;2801;50.972;7.856;2023-09-19T05:53:07;11.60;99.90
5556;DHT22;2801;50.972;7.856;2023-09-19T05:55:34;11.70;99.90
5556;DHT22;2801;50.972;7.856;2023-09-19T05:58:02;11.70;99.90
5556;DHT22;2801;50.972;7.856;2023-09-19T06:00:30;11.80;99.90
5556;DHT22;2801;50.972;7.856;2023-09-19T06:02:59;11.80;99.90
5556;DHT22;2801;50.972;7.856;2023-09-19T06:05:27;11.80;99.90
5556;DHT22;2801;50.972;7.856;2023-09-19T06:07:55;11.90;99.90
5556;DHT22;2801;50.972;7.856;2023-09-19T06:10:27;12.00;99.90
5556;DHT22;2801;50.972;7.856;2023-09-19T06:12:56;12.00;99.90
5556;DHT22;2801;50.972;7.856;2023-09-19T06:15:25;12.00;99.90
5556;DHT22;2801;50.972;7.856;2023-09-19T06:17:54;12.00;99.90
5556;DHT22;2801;50.972;7.856;2023-09-19T06:20:24;12.10;99.90
5556;DHT22;2801;50.972;7.856;2023-09-19T06:22:53;12.10;99.90
5556;DHT22;2801;50.972;7.856;2023-09-19T06:25:20;12.10;99.90
5556;DHT22;2801;50.972;7.856;2023-09-19T06:27:50;12.20;99.90
5556;DHT22;2801;50.972;7.856;2023-09-19T06:30:22;12.20;99.90
5556;DHT22;2801;50.972;7.856;2023-09-19T06:32:58;12.20;99.90
5556;DHT22;2801;50.972;7.856;2023-09-19T06:35:27;12.20;99.90
5556;DHT22;2801;50.972;7.856;2023-09-19T06:37:56;12.30;99.90
5556;DHT22;2801;50.972;7.856;2023-09-19T06:40:25;12.40;99.90
5556;DHT22;2801;50.972;7.856;2023-09-19T06:42:53;12.40;99.90
5556;DHT22;2801;50.972;7.856;2023-09-19T06:45:20;12.50;99.90
5556;DHT22;2801;50.972;7.856;2023-09-19T06:47:50;12.60;99.90
5556;DHT22;2801;50.972;7.856;2023-09-19T06:50:20;12.70;99.90
5556;DHT22;2801;50.972;7.856;2023-09-19T06:52:51;12.70;99.90
5556;DHT22;2801;50.972;7.856;2023-09-19T06:55:21;12.90;99.90
5556;DHT22;2801;50.972;7.856;2023-09-19T06:57:52;12.70;99.90
5556;DHT22;2801;50.972;7.856;2023-09-19T07:00:21;12.80;99.90
5556;DHT22;2801;50.972;7.856;2023-09-19T07:02:56;13.00;99.90
5556;DHT22;2801;50.972;7.856;2023-09-19T07:05:31;12.90;99.90
5556;DHT22;2801;50.972;7.856;2023-09-19T07:08:01;13.00;99.90
5556;DHT22;2801;50.972;7.856;2023-09-19T07:10:29;13.00;99.90
5556;DHT22;2801;50.972;7.856;2023-09-19T07:13:01;13.10;99.90
5556;DHT22;2801;50.972;7.856;2023-09-19T07:15:32;13.20;99.90
5556;DHT22;2801;50.972;7.856;2023-09-19T07:18:06;13.30;99.90
5556;DHT22;2801;50.972;7.856;2023-09-19T07:20:38;13.40;99.90
5556;DHT22;2801;50.972;7.856;2023-09-19T07:23:05;13.50;99.90
5556;DHT22;2801;50.972;7.856;2023-09-19T07:25:33;13.50;99.90
5556;DHT22;2801;50.972;7.856;2023-09-19T07:28:02;13.60;99.90
5556;DHT22;2801;50.972;7.856;2023-09-19T07:30:30;13.60;99.90
5556;DHT22;2801;50.972;7.856;2023-09-19T07:32:57;13.70;99.90
5556;DHT22;2801;50.972;7.856;2023-09-19T07:35:24;13.70;99.90
5556;DHT22;2801;50.972;7.856;2023-09-19T07:37:52;13.80;99.90
5556;DHT22;2801;50.972;7.856;2023-09-19T07:40:19;13.80;99.90
5556;DHT22;2801;50.972;7.856;2023-09-19T07:42:50;13.80;99.90
5556;DHT22;2801;50.972;7.856;2023-09-19T07:45:17;13.90;99.90
5556;DHT22;2801;50.972;7.856;2023-09-19T07:47:48;13.90;99.90
5556;DHT22;2801;50.972;7.856;2023-09-19T07:50:17;14.00;99.90
5556;DHT22;2801;50.972;7.856;2023-09-19T07:52:48;14.00;99.90
5556;DHT22;2801;50.972;7.856;2023-09-19T07:55:20;14.10;99.90
5556;DHT22;2801;50.972;7.856;2023-09-19T07:57:51;14.10;99.90
5556;DHT22;2801;50.972;7.856;2023-09-19T08:00:19;14.10;99.90
5556;DHT22;2801;50.972;7.856;2023-09-19T08:02:46;14.20;99.90
5556;DHT22;2801;50.972;7.856;2023-09-19T08:05:22;14.20;99.90
5556;DHT22;2801;50.972;7.856;2023-09-19T08:07:49;14.30;99.90
5556;DHT22;2801;50.972;7.856;2023-09-19T08:10:16;14.30;99.90
5556;DHT22;2801;50.972;7.856;2023-09-19T08:12:47;14.40;99.90
5556;DHT22;2801;50.972;7.856;2023-09-19T08:15:16;14.40;99.90
5556;DHT22;2801;50.972;7.856;2023-09-19T08:17:46;14.50;99.90
5556;DHT22;2801;50.972;7.856;2023-09-19T08:20:14;14.50;99.90
5556;DHT22;2801;50.972;7.856;2023-09-19T08:22:49;14.50;99.90
5556;DHT22;2801;50.972;7.856;2023-09-19T08:25:20;14.50;99.90
5556;DHT22;2801;50.972;7.856;2023-09-19T08:27:49;14.60;99.90
5556;DHT22;2801;50.972;7.856;2023-09-19T08:30:18;14.70;99.90
5556;DHT22;2801;50.972;7.856;2023-09-19T08:32:51;14.70;99.90
5556;DHT22;2801;50.972;7.856;2023-09-19T08:35:23;14.70;99.90
5556;DHT22;2801;50.972;7.856;2023-09-19T08:37:50;14.80;99.90
5556;DHT22;2801;50.972;7.856;2023-09-19T08:40:18;14.80;99.90
5556;DHT22;2801;50.972;7.856;2023-09-19T08:42:55;14.90;99.90
5556;DHT22;2801;50.972;7.856;2023-09-19T08:45:24;15.00;99.90
5556;DHT22;2801;50.972;7.856;2023-09-19T08:50:55;15.10;99.90
5556;DHT22;2801;50.972;7.856;2023-09-19T08:53:42;15.20;99.90
5556;DHT22;2801;50.972;7.856;2023-09-19T08:56:18;15.20;99.90
5556;DHT22;2801;50.972;7.856;2023-09-19T08:58:53;15.20;99.90
5556;DHT22;2801;50.972;7.856;2023-09-19T09:01:23;15.20;99.90
5556;DHT22;2801;50.972;7.856;2023-09-19T09:03:55;15.30;99.90
5556;DHT22;2801;50.972;7.856;2023-09-19T09:06:25;15.40;99.90
5556;DHT22;2801;50.972;7.856;2023-09-19T09:08:55;15.40;99.90
5556;DHT22;2801;50.972;7.856;2023-09-19T09:11:23;15.40;99.90
5556;DHT22;2801;50.972;7.856;2023-09-19T09:13:51;15.50;99.90
5556;DHT22;2801;50.972;7.856;2023-09-19T09:16:18;15.60;99.90
5556;DHT22;2801;50.972;7.856;2023-09-19T09:18:47;15.60;99.90
5556;DHT22;2801;50.972;7.856;2023-09-19T09:21:21;15.60;99.90
5556;DHT22;2801;50.972;7.856;2023-09-19T09:23:51;15.60;99.90
5556;DHT22;2801;50.972;7.856;2023-09-19T09:29:05;15.70;99.90
5556;DHT22;2801;50.972;7.856;2023-09-19T09:31:32;15.80;99.90
5556;DHT22;2801;50.972;7.856;2023-09-19T09:34:00;15.80;99.90
5556;DHT22;2801;50.972;7.856;2023-09-19T09:36:40;15.90;99.90
5556;DHT22;2801;50.972;7.856;2023-09-19T09:39:08;15.90;99.90
5556;DHT22;2801;50.972;7.856;2023-09-19T09:41:43;16.00;99.90
5556;DHT22;2801;50.972;7.856;2023-09-19T09:44:16;16.10;99.90
5556;DHT22;2801;50.972;7.856;2023-09-19T09:46:46;16.10;99.90
5556;DHT22;2801;50.972;7.856;2023-09-19T09:49:25;16.30;99.90
5556;DHT22;2801;50.972;7.856;2023-09-19T09:52:05;16.40;99.90
5556;DHT22;2801;50.972;7.856;2023-09-19T09:55:02;16.60;99.90
5556;DHT22;2801;50.972;7.856;2023-09-19T09:57:33;16.90;99.90
5556;DHT22;2801;50.972;7.856;2023-09-19T10:00:02;17.20;99.90
5556;DHT22;2801;50.972;7.856;2023-09-19T10:02:46;17.30;99.90
5556;DHT22;2801;50.972;7.856;2023-09-19T10:07:56;17.60;99.90
5556;DHT22;2801;50.972;7.856;2023-09-19T10:10:38;17.60;99.90
5556;DHT22;2801;50.972;7.856;2023-09-19T10:13:13;17.60;99.90
5556;DHT22;2801;50.972;7.856;2023-09-19T10:15:48;17.50;99.90
5556;DHT22;2801;50.972;7.856;2023-09-19T10:18:21;17.50;99.90
5556;DHT22;2801;50.972;7.856;2023-09-19T10:20:53;17.50;99.90
5556;DHT22;2801;50.972;7.856;2023-09-19T10:23:21;17.60;99.90
5556;DHT22;2801;50.972;7.856;2023-09-19T10:25:50;17.50;99.90
5556;DHT22;2801;50.972;7.856;2023-09-19T10:28:20;17.50;99.90
5556;DHT22;2801;50.972;7.856;2023-09-19T10:30:52;17.60;99.90
5556;DHT22;2801;50.972;7.856;2023-09-19T10:33:24;17.70;99.90
5556;DHT22;2801;50.972;7.856;2023-09-19T10:35:59;17.80;99.90
5556;DHT22;2801;50.972;7.856;2023-09-19T10:38:28;17.70;99.90
5556;DHT22;2801;50.972;7.856;2023-09-19T10:40:57;17.70;99.90
5556;DHT22;2801;50.972;7.856;2023-09-19T10:43:32;17.60;99.90
5556;DHT22;2801;50.972;7.856;2023-09-19T10:46:07;17.60;99.90
5556;DHT22;2801;50.972;7.856;2023-09-19T10:48:38;17.50;99.90
5556;DHT22;2801;50.972;7.856;2023-09-19T10:51:16;17.40;99.90
5556;DHT22;2801;50.972;7.856;2023-09-19T10:53:55;17.30;99.90
5556;DHT22;2801;50.972;7.856;2023-09-19T10:56:30;17.30;99.90
5556;DHT22;2801;50.972;7.856;2023-09-19T10:59:14;17.30;99.90
5556;DHT22;2801;50.972;7.856;2023-09-19T11:04:40;17.40;99.90
5556;DHT22;2801;50.972;7.856;2023-09-19T11:07:10;17.50;99.90
5556;DHT22;2801;50.972;7.856;2023-09-19T11:09:55;17.50;99.90
5556;DHT22;2801;50.972;7.856;2023-09-19T11:15:03;17.50;99.90
5556;DHT22;2801;50.972;7.856;2023-09-19T11:17:38;17.50;99.90
5556;DHT22;2801;50.972;7.856;2023-09-19T11:30:47;17.50;99.90
5556;DHT22;2801;50.972;7.856;2023-09-19T11:33:20;17.50;99.90
5556;DHT22;2801;50.972;7.856;2023-09-19T11:36:13;17.50;99.90
5556;DHT22;2801;50.972;7.856;2023-09-19T11:46:34;17.70;99.90
5556;DHT22;2801;50.972;7.856;2023-09-19T11:49:08;17.90;99.90
5556;DHT22;2801;50.972;7.856;2023-09-19T11:51:42;17.90;99.90
5556;DHT22;2801;50.972;7.856;2023-09-19T11:54:12;18.00;99.90
5556;DHT22;2801;50.972;7.856;2023-09-19T11:56:45;18.10;99.90
5556;DHT22;2801;50.972;7.856;2023-09-19T11:59:38;18.00;99.90
5556;DHT22;2801;50.972;7.856;2023-09-19T12:02:07;18.00;99.90
5556;DHT22;2801;50.972;7.856;2023-09-19T12:04:38;18.10;99.90
5556;DHT22;2801;50.972;7.856;2023-09-19T12:07:09;18.20;99.90
5556;DHT22;2801;50.972;7.856;2023-09-19T12:09:42;18.20;99.90
5556;DHT22;2801;50.972;7.856;2023-09-19T12:12:11;18.30;99.90
5556;DHT22;2801;50.972;7.856;2023-09-19T12:14:50;18.50;99.90
5556;DHT22;2801;50.972;7.856;2023-09-19T12:17:18;18.60;99.90
5556;DHT22;2801;50.972;7.856;2023-09-19T12:19:56;18.60;99.90
5556;DHT22;2801;50.972;7.856;2023-09-19T12:22:23;18.60;99.90
5556;DHT22;2801;50.972;7.856;2023-09-19T12:24:51;18.60;99.90
5556;DHT22;2801;50.972;7.856;2023-09-19T12:27:21;18.50;99.90
5556;DHT22;2801;50.972;7.856;2023-09-19T12:29:49;18.50;99.90
5556;DHT22;2801;50.972;7.856;2023-09-19T12:32:17;18.50;99.90
5556;DHT22;2801;50.972;7.856;2023-09-19T12:34:52;18.50;99.90
5556;DHT22;2801;50.972;7.856;2023-09-19T12:37:21;18.50;99.90
5556;DHT22;2801;50.972;7.856;2023-09-19T12:39:51;18.60;99.90
5556;DHT22;2801;50.972;7.856;2023-09-19T12:42:26;18.60;99.90
5556;DHT22;2801;50.972;7.856;2023-09-19T12:45:02;18.70;99.90
5556;DHT22;2801;50.972;7.856;2023-09-19T12:47:36;18.80;99.90
5556;DHT22;2801;50.972;7.856;2023-09-19T12:50:14;18.90;99.90
5556;DHT22;2801;50.972;7.856;2023-09-19T12:52:49;18.90;99.90
5556;DHT22;2801;50.972;7.856;2023-09-19T12:55:28;19.00;99.90
5556;DHT22;2801;50.972;7.856;2023-09-19T12:58:09;19.10;99.90
5556;DHT22;2801;50.972;7.856;2023-09-19T13:00:43;19.20;99.90
5556;DHT22;2801;50.972;7.856;2023-09-19T13:03:18;19.40;99.90
5556;DHT22;2801;50.972;7.856;2023-09-19T13:05:59;19.40;99.90
5556;DHT22;2801;50.972;7.856;2023-09-19T13:08:34;19.40;99.90
5556;DHT22;2801;50.972;7.856;2023-09-19T13:11:14;19.50;99.90
5556;DHT22;2801;50.972;7.856;2023-09-19T13:13:49;19.60;99.90
5556;DHT22;2801;50.972;7.856;2023-09-19T13:16:21;19.80;99.90
5556;DHT22;2801;50.972;7.856;2023-09-19T13:18:55;19.70;99.90
5556;DHT22;2801;50.972;7.856;2023-09-19T13:21:31;19.60;99.90
5556;DHT22;2801;50.972;7.856;2023-09-19T13:24:24;19.60;99.90
5556;DHT22;2801;50.972;7.856;2023-09-19T13:26:57;19.80;99.90
5556;DHT22;2801;50.972;7.856;2023-09-19T13:29:24;19.80;99.90
5556;DHT22;2801;50.972;7.856;2023-09-19T13:31:52;19.90;99.90
5556;DHT22;2801;50.972;7.856;2023-09-19T13:34:22;19.90;99.90
5556;DHT22;2801;50.972;7.856;2023-09-19T13:36:49;19.90;99.90
5556;DHT22;2801;50.972;7.856;2023-09-19T13:39:17;20.00;99.90
5556;DHT22;2801;50.972;7.856;2023-09-19T13:41:46;19.90;99.90
5556;DHT22;2801;50.972;7.856;2023-09-19T13:44:14;20.00;99.90
5556;DHT22;2801;50.972;7.856;2023-09-19T13:46:44;19.90;99.90
5556;DHT22;2801;50.972;7.856;2023-09-19T13:49:13;19.90;99.90
5556;DHT22;2801;50.972;7.856;2023-09-19T13:51:40;19.70;99.90
5556;DHT22;2801;50.972;7.856;2023-09-19T13:54:10;19.50;99.90
5556;DHT22;2801;50.972;7.856;2023-09-19T13:56:38;19.60;99.90
5556;DHT22;2801;50.972;7.856;2023-09-19T13:59:06;19.60;99.90
5556;DHT22;2801;50.972;7.856;2023-09-19T14:01:33;19.60;99.90
5556;DHT22;2801;50.972;7.856;2023-09-19T14:04:00;19.70;99.90
5556;DHT22;2801;50.972;7.856;2023-09-19T14:06:29;19.60;99.90
5556;DHT22;2801;50.972;7.856;2023-09-19T14:08:56;19.70;99.90
5556;DHT22;2801;50.972;7.856;2023-09-19T14:11:22;19.70;99.90
5556;DHT22;2801;50.972;7.856;2023-09-19T14:13:49;19.80;99.90
5556;DHT22;2801;50.972;7.856;2023-09-19T14:16:21;19.80;99.90
5556;DHT22;2801;50.972;7.856;2023-09-19T14:18:50;19.80;99.90
5556;DHT22;2801;50.972;7.856;2023-09-19T14:21:19;19.80;99.90
5556;DHT22;2801;50.972;7.856;2023-09-19T14:23:46;19.80;99.90
5556;DHT22;2801;50.972;7.856;2023-09-19T14:26:13;19.90;99.90
5556;DHT22;2801;50.972;7.856;2023-09-19T14:28:40;19.90;99.90
5556;DHT22;2801;50.972;7.856;2023-09-19T14:31:09;19.60;99.90
5556;DHT22;2801;50.972;7.856;2023-09-19T14:33:37;19.50;99.90
5556;DHT22;2801;50.972;7.856;2023-09-19T14:36:09;19.40;99.90
5556;DHT22;2801;50.972;7.856;2023-09-19T14:38:37;19.30;99.90
5556;DHT22;2801;50.972;7.856;2023-09-19T14:41:06;19.40;99.90
5556;DHT22;2801;50.972;7.856;2023-09-19T14:43:33;19.60;99.90
5556;DHT22;2801;50.972;7.856;2023-09-19T14:48:31;19.60;99.90
5556;DHT22;2801;50.972;7.856;2023-09-19T14:51:08;19.60;99.90
5556;DHT22;2801;50.972;7.856;2023-09-19T14:53:36;19.60;99.90
5556;DHT22;2801;50.972;7.856;2023-09-19T14:56:07;19.70;99.90
5556;DHT22;2801;50.972;7.856;2023-09-19T14:58:35;19.70;99.90
5556;DHT22;2801;50.972;7.856;2023-09-19T15:01:07;19.80;99.90
5556;DHT22;2801;50.972;7.856;2023-09-19T15:03:42;19.80;99.90
5556;DHT22;2801;50.972;7.856;2023-09-19T15:06:10;19.80;99.90
5556;DHT22;2801;50.972;7.856;2023-09-19T15:08:42;19.70;99.90
5556;DHT22;2801;50.972;7.856;2023-09-19T15:11:15;19.50;99.90
5556;DHT22;2801;50.972;7.856;2023-09-19T15:13:45;19.20;99.90
5556;DHT22;2801;50.972;7.856;2023-09-19T15:16:14;19.20;99.90
5556;DHT22;2801;50.972;7.856;2023-09-19T15:18:43;19.10;99.90
5556;DHT22;2801;50.972;7.856;2023-09-19T15:21:14;19.10;99.90
5556;DHT22;2801;50.972;7.856;2023-09-19T15:23:42;19.00;99.90
5556;DHT22;2801;50.972;7.856;2023-09-19T15:26:13;19.00;99.90
5556;DHT22;2801;50.972;7.856;2023-09-19T15:28:47;18.80;99.90
5556;DHT22;2801;50.972;7.856;2023-09-19T15:31:15;18.80;99.90
5556;DHT22;2801;50.972;7.856;2023-09-19T15:33:42;18.90;99.90
5556;DHT22;2801;50.972;7.856;2023-09-19T15:36:14;18.90;99.90
5556;DHT22;2801;50.972;7.856;2023-09-19T15:39:05;18.90;99.90
5556;DHT22;2801;50.972;7.856;2023-09-19T15:41:35;18.90;99.90
5556;DHT22;2801;50.972;7.856;2023-09-19T15:44:14;18.80;99.90
5556;DHT22;2801;50.972;7.856;2023-09-19T15:46:43;18.80;99.90
5556;DHT22;2801;50.972;7.856;2023-09-19T15:49:12;18.80;99.90
5556;DHT22;2801;50.972;7.856;2023-09-19T15:51:39;18.80;99.90
5556;DHT22;2801;50.972;7.856;2023-09-19T15:54:14;18.60;99.90
5556;DHT22;2801;50.972;7.856;2023-09-19T15:56:43;18.50;99.90
5556;DHT22;2801;50.972;7.856;2023-09-19T15:59:11;18.40;99.90
5556;DHT22;2801;50.972;7.856;2023-09-19T16:01:40;18.20;99.90
5556;DHT22;2801;50.972;7.856;2023-09-19T16:04:09;18.10;99.90
5556;DHT22;2801;50.972;7.856;2023-09-19T16:06:37;18.00;99.90
5556;DHT22;2801;50.972;7.856;2023-09-19T16:09:05;17.80;99.90
5556;DHT22;2801;50.972;7.856;2023-09-19T16:11:34;17.80;99.90
5556;DHT22;2801;50.972;7.856;2023-09-19T16:14:05;17.60;99.90
5556;DHT22;2801;50.972;7.856;2023-09-19T16:16:36;17.50;99.90
5556;DHT22;2801;50.972;7.856;2023-09-19T16:19:05;17.50;99.90
5556;DHT22;2801;50.972;7.856;2023-09-19T16:21:37;17.40;99.90
5556;DHT22;2801;50.972;7.856;2023-09-19T16:24:07;17.30;99.90
5556;DHT22;2801;50.972;7.856;2023-09-19T16:26:36;17.30;99.90
5556;DHT22;2801;50.972;7.856;2023-09-19T16:29:06;17.30;99.90
5556;DHT22;2801;50.972;7.856;2023-09-19T16:31:34;17.30;99.90
5556;DHT22;2801;50.972;7.856;2023-09-19T16:34:02;17.30;99.90
5556;DHT22;2801;50.972;7.856;2023-09-19T16:36:30;17.20;99.90
5556;DHT22;2801;50.972;7.856;2023-09-19T16:38:58;17.30;99.90
5556;DHT22;2801;50.972;7.856;2023-09-19T16:41:26;17.20;99.90
5556;DHT22;2801;50.972;7.856;2023-09-19T16:43:53;17.30;99.90
5556;DHT22;2801;50.972;7.856;2023-09-19T16:46:20;17.20;99.90
5556;DHT22;2801;50.972;7.856;2023-09-19T16:48:48;17.10;99.90
5556;DHT22;2801;50.972;7.856;2023-09-19T16:51:20;17.30;99.90
5556;DHT22;2801;50.972;7.856;2023-09-19T16:53:48;17.20;99.90
5556;DHT22;2801;50.972;7.856;2023-09-19T16:56:19;17.20;99.90
5556;DHT22;2801;50.972;7.856;2023-09-19T16:58:48;17.10;99.90
5556;DHT22;2801;50.972;7.856;2023-09-19T17:01:18;17.10;99.90
5556;DHT22;2801;50.972;7.856;2023-09-19T17:03:47;17.00;99.90
5556;DHT22;2801;50.972;7.856;2023-09-19T17:06:16;17.00;99.90
5556;DHT22;2801;50.972;7.856;2023-09-19T17:08:46;16.90;99.90
5556;DHT22;2801;50.972;7.856;2023-09-19T17:11:15;16.90;99.90
5556;DHT22;2801;50.972;7.856;2023-09-19T17:13:45;16.80;99.90
5556;DHT22;2801;50.972;7.856;2023-09-19T17:16:17;16.70;99.90
5556;DHT22;2801;50.972;7.856;2023-09-19T17:18:51;16.60;99.90